ADDS METAR Data INFO
IDs: Format: Raw Decoded Include TAF

Data at: 1153 UTC 25 Jun 2018

KGCC 251053Z AUTO 17005KT 10SM CLR 10/09 A3005 RMK AO2 SLP148 T01000094 $
KGCC 250953Z AUTO 17004KT 10SM CLR 12/11 A3004 RMK AO2 SLP152 T01170106 $
KGCC 250853Z AUTO 19003KT 10SM CLR 11/10 A3005 RMK AO2 SLP153 T01110100 58011 $
KGCC 250753Z AUTO 23004KT 10SM CLR 11/11 A3007 RMK AO2 SLP160 T01110106 $
KGCC 250653Z AUTO 17005KT 10SM CLR 12/11 A3008 RMK AO2 SLP167 T01170111 401940106 $
KGCC 250553Z AUTO 17004KT 10SM CLR 11/10 A3009 RMK AO2 SLP172 T01110100 10194 20106 50003 $
KGCC 250453Z AUTO 23003KT 10SM CLR 12/11 A3010 RMK AO2 SLP176 T01170111 $
KGCC 250353Z AUTO 24004KT 10SM FEW050 13/12 A3010 RMK AO2 SLP173 T01330122 $
KGCC 250253Z AUTO 04003KT 10SM SCT045 BKN070 OVC110 17/13 A3008 RMK AO2 SLP161 T01670128 51008 $
KGCC 250153Z AUTO 03005KT 10SM SCT090 18/13 A3008 RMK AO2 SLP158 T01780128 $
KGCC 250053Z AUTO 02006KT 10SM BKN120 18/12 A3007 RMK AO2 SLP155 T01830122 $
KGCC 242353Z AUTO 33006KT 10SM BKN100 19/13 A3006 RMK AO2 SLP150 60033 T01890133 10194 20117 56009 $
KGCC 242253Z AUTO 32007KT 10SM SCT080 19/13 A3007 RMK AO2 RAE00 SLP152 P0000 T01940133 $
KGCC 242153Z AUTO 00000KT 9SM -RA FEW043 BKN080 OVC090 15/13 A3007 RMK AO2 LTG DSNT N RAEMMB17 TSB23E38 SLP162 P0009 T01500133 $
KGCC 242144Z AUTO 00000KT 9SM -RA FEW060 OVC080 15/13 A3008 RMK AO2 LTG DSNT N RAEMMB17 TSB23E38 P0008 T01500128 $
KGCC 242136Z AUTO 00000KT 7SM -TSRA 14/13 A3008 RMK AO2 RAEMMB17 TSB23 P0008 T01440128 $
KGCC 242125Z AUTO 00000KT 2SM TSRA BR 14/13 A3008 RMK AO2 LTG DSNT NW RAEMMB17 TSB23 P0006 T01440128 $
KGCC 242111Z AUTO 1 1/2SM BR 15/13 A3009 RMK AO2 LTG DSNT NW RAEMM P0002 T01500128 PWINO $
KGCC 242053Z AUTO 27005KT 10SM -RA SCT039 BKN070 OVC080 16/13 A3009 RMK AO2 RAB1957E07B26 SLP165 P0001 60024 T01610133 57004 $
KGCC 241953Z AUTO 24005KT 10SM FEW032 SCT042 OVC050 15/12 A3009 RMK AO2 LTG DSNT N AND NE RAE1856 SLP167 P0000 T01500117 $
KGCC 241928Z AUTO 22009KT 10SM SCT025 BKN060 15/13 A3009 RMK AO2 RAE1856 P0000 T01500128 $
KGCC 241853Z AUTO 24007KT 9SM -RA BKN026 OVC033 12/12 A3010 RMK AO2 SLP174 P0023 T01220117 $
KGCC 241851Z AUTO 24008KT 8SM -RA BKN026 OVC035 12/12 A3010 RMK AO2 P0023 $
KGCC 241842Z AUTO 25006KT 3SM -RA BR BKN031 BKN038 OVC045 12/12 A3010 RMK AO2 P0023 T01220117 $
KGCC 241800Z AUTO 26005KT 1 1/2SM -RA BR FEW034 BKN043 OVC060 12/12 A3010 RMK AO2 VIS 3/4V4 P0004 T01220122 $
KGCC 241753Z AUTO 27007KT 2SM RA BR FEW034 BKN045 OVC060 12/12 A3010 RMK AO2 VIS 1V3 SLP172 P0013 60074 T01220117 10122 20111 53015 $
KGCC 241731Z AUTO 28008KT 2SM RA BR SCT049 OVC060 12/12 A3009 RMK AO2 P0006 T01220117 $
KGCC 241653Z AUTO 28013KT 7SM -RA OVC065 12/11 A3008 RMK AO2 LTG DSNT W SLP163 P0021 T01170111 $
KGCC 241623Z AUTO 29013KT 4SM RA BR OVC060 12/11 A3008 RMK AO2 P0013 T01170111 $
KGCC 241606Z AUTO 30013KT 2SM RA BR OVC060 11/11 A3007 RMK AO2 LTG DSNT NE AND W P0006 T01110111 $
KGCC 241553Z AUTO 29011KT 3SM -RA BR OVC055 12/11 A3007 RMK AO2 LTG DSNT W-NE SLP160 P0022 T01170111 $
KGCC 241526Z AUTO 31008KT 2SM RA BR FEW041 OVC050 12/11 A3007 RMK AO2 LTG DSNT W-NE P0008 T01170111 $
KGCC 241517Z AUTO 30010KT 4SM VCTS RA BR FEW041 BKN050 OVC065 12/11 A3007 RMK AO2 LTG DSNT NW-NE P0003 T01170111 $
KGCC 241453Z AUTO 29009KT 9SM -RA BKN060 OVC075 12/11 A3005 RMK AO2 LTG DSNT NW-NE SLP154 P0008 60018 T01170111 53008 $
KGCC 241353Z AUTO 28011KT 9SM -RA OVC065 12/11 A3004 RMK AO2 LTG DSNT N AND NW SLP148 P0005 T01170111 $
KGCC 241253Z AUTO 29004KT 4SM -RA BR FEW019 OVC065 12/11 A3004 RMK AO2 LTG DSNT W AND NW RAB06 SLP147 P0005 T01170111 $
KGCC 241153Z AUTO 35005KT 10SM BKN070 OVC100 11/11 A3002 RMK AO2 LTG DSNT NW RAB16E25 SLP140 P0000 60041 70041 T01110106 10128 20111 53015 $
KGCC 241053Z AUTO 33005KT 10SM SCT070 OVC090 11/11 A3000 RMK AO2 SLP129 T01110106 $
KGCC 240953Z AUTO 33009KT 10SM FEW080 OVC095 11/11 A2998 RMK AO2 LTG DSNT N AND NE SLP121 T01110106 $
KGCC 240853Z AUTO 33005KT 10SM FEW080 OVC100 11/11 A2997 RMK AO2 LTG DSNT N AND NE RAE30 SLP117 P0006 60041 T01110106 51005 $
KGCC 240753Z AUTO 27011KT 8SM RA OVC055 12/10 A2996 RMK AO2 LTG DSNT N AND NE SLP112 P0009 T01170100 $
KGCC 240653Z AUTO 26017KT 7SM -RA SCT044 OVC065 12/10 A2997 RMK AO2 PK WND 27031/0627 LTG DSNT N AND NE TSB23E53 SLP115 P0026 T01170100 402280111 $
KGCC 240637Z AUTO 26019G30KT 3SM TSRA BR OVC044 12/10 A2996 RMK AO2 PK WND 27031/0627 LTG DSNT W TSB23 P0025 T01170100 $
KGCC 240623Z AUTO 27025G30KT 1 3/4SM +TSRA BR BKN036 BKN045 OVC050 12/11 A2994 RMK AO2 PK WND 27030/0622 LTG DSNT NE AND W TSB23 P0009 T01170106 $
KGCC 240553Z AUTO 28015KT 10SM VCTS -RA BKN041 BKN050 OVC100 13/11 A2996 RMK AO2 LTG DSNT NW RAB48 SLP108 P0000 60000 T01330106 10183 20133 53013 $
KGCC 240453Z AUTO 27008KT 10SM BKN100 14/12 A2993 RMK AO2 LTG DSNT SW AND W SLP101 T01440122 $
KGCC 240353Z AUTO 01004KT 10SM FEW110 16/11 A2991 RMK AO2 SLP093 T01560111 $
KGCC 240253Z AUTO 25005KT 10SM SCT100 14/12 A2991 RMK AO2 SLP094 60000 T01440122 51013 $
KGCC 240153Z AUTO 00000KT 10SM SCT100 16/13 A2989 RMK AO2 SLP085 T01610128 $
KGCC 240053Z AUTO 23006KT 10SM FEW065 OVC090 16/12 A2992 RMK AO2 LTG DSNT E AND SE RAB37E46 SLP098 P0000 T01610122 $
KGCC 240036Z AUTO 24007KT 10SM 17/11 A2992 RMK AO2 LTG DSNT SE AND S T01720111 $
KGCC 240012Z AUTO VCTS 18/10 A2989 RMK AO2 LTG DSNT SE T01780100 PWINO $